createdAt,value
2019-02-28T00:04:58.736Z,98155.00
2019-02-28T00:09:13.637Z,98160.00
2019-02-28T00:13:27.956Z,98156.00
2019-02-28T00:17:43.527Z,98153.00
2019-02-28T00:21:58.494Z,98151.00
2019-02-28T00:26:13.274Z,98148.00
2019-02-28T00:30:27.897Z,98135.00
2019-02-28T00:34:45.569Z,98120.00
2019-02-28T00:39:00.072Z,98122.00
2019-02-28T00:43:14.660Z,98122.00
2019-02-28T00:47:29.455Z,98106.00
2019-02-28T00:51:43.954Z,98105.00
2019-02-28T00:55:58.438Z,98102.00
2019-02-28T01:00:05.127Z,98104.00
2019-02-28T01:04:22.191Z,98104.00
2019-02-28T01:08:42.918Z,98108.00
2019-02-28T01:13:03.646Z,98093.00
2019-02-28T01:17:26.711Z,98094.00
2019-02-28T01:21:47.129Z,98100.00
2019-02-28T01:26:07.863Z,98095.00
2019-02-28T01:30:28.634Z,98095.00
2019-02-28T01:34:42.508Z,98087.00
2019-02-28T01:38:43.469Z,98081.00
2019-02-28T01:43:04.254Z,98077.00
2019-02-28T01:47:25.080Z,98068.00
2019-02-28T01:51:45.820Z,98069.00
2019-02-28T01:56:06.626Z,98062.00
2019-02-28T02:00:27.484Z,98056.00
2019-02-28T02:04:48.227Z,98052.00
2019-02-28T02:09:11.013Z,98052.00
2019-02-28T02:13:36.632Z,98049.00
2019-02-28T02:17:54.283Z,98051.00
2019-02-28T02:22:15.101Z,98034.00
2019-02-28T02:26:35.940Z,98026.00
2019-02-28T02:30:56.704Z,98016.00
2019-02-28T02:35:06.273Z,98004.00
2019-02-28T02:39:20.219Z,98000.00
2019-02-28T02:43:40.938Z,97995.00
2019-02-28T02:48:05.201Z,97990.00
2019-02-28T02:52:29.979Z,98001.00
2019-02-28T02:56:47.050Z,97993.00
2019-02-28T03:01:07.808Z,97985.00
2019-02-28T03:05:34.976Z,97987.00
2019-02-28T03:09:51.364Z,97982.00
2019-02-28T03:14:16.456Z,97978.00
2019-02-28T03:18:34.866Z,97962.00
2019-02-28T03:22:55.583Z,97961.00
2019-02-28T03:27:19.196Z,97966.00
2019-02-28T03:31:19.168Z,97954.00
2019-02-28T03:35:43.471Z,97948.00
2019-02-28T03:39:48.954Z,97941.00
2019-02-28T03:44:03.680Z,97939.00
2019-02-28T03:48:04.768Z,97943.00
2019-02-28T03:52:25.629Z,97949.00
2019-02-28T03:56:51.042Z,97933.00
2019-02-28T04:01:10.230Z,97925.00
2019-02-28T04:05:31.824Z,97917.00
2019-02-28T04:09:52.670Z,97921.00
2019-02-28T04:14:13.393Z,97923.00
2019-02-28T04:18:34.113Z,97922.00
2019-02-28T04:22:58.830Z,97922.00
2019-02-28T04:26:57.965Z,97920.00
2019-02-28T04:31:20.193Z,97913.00
2019-02-28T04:35:34.413Z,97921.00
2019-02-28T04:39:48.892Z,97914.00
2019-02-28T04:44:03.032Z,97922.00
2019-02-28T04:48:17.527Z,97929.00
2019-02-28T04:52:18.532Z,97912.00
2019-02-28T04:56:39.270Z,97919.00
2019-02-28T05:00:40.229Z,97920.00
2019-02-28T05:05:00.977Z,97905.00
2019-02-28T05:09:21.721Z,97903.00
2019-02-28T05:13:22.999Z,97901.00
2019-02-28T05:17:43.956Z,97907.00
2019-02-28T05:22:04.730Z,97901.00
2019-02-28T05:26:05.788Z,97896.00
2019-02-28T05:30:26.507Z,97902.00
2019-02-28T05:34:41.346Z,97893.00
2019-02-28T05:38:56.560Z,97898.00
2019-02-28T05:43:11.696Z,97895.00
2019-02-28T05:47:29.436Z,97901.00
2019-02-28T05:51:43.043Z,97908.00
2019-02-28T05:55:59.890Z,97901.00
2019-02-28T06:00:15.977Z,97909.00
2019-02-28T06:04:30.518Z,97915.00
2019-02-28T06:08:45.076Z,97906.00
2019-02-28T06:12:59.707Z,97911.00
2019-02-28T06:17:14.202Z,97920.00
2019-02-28T06:21:28.528Z,97911.00
2019-02-28T06:25:43.046Z,97918.00
2019-02-28T06:29:57.437Z,97916.00
2019-02-28T06:34:11.311Z,97929.00
2019-02-28T06:38:26.056Z,97930.00
2019-02-28T06:42:43.587Z,97936.00
2019-02-28T06:46:56.466Z,97925.00
2019-02-28T06:51:11.088Z,97932.00
2019-02-28T06:55:26.737Z,97932.00
2019-02-28T06:59:40.738Z,97933.00
2019-02-28T07:03:55.321Z,97937.00
2019-02-28T07:08:09.920Z,97947.00
2019-02-28T07:12:29.267Z,97933.00
2019-02-28T07:16:40.457Z,97935.00
2019-02-28T07:20:55.121Z,97938.00
2019-02-28T07:25:12.623Z,97930.00
2019-02-28T07:29:26.260Z,97947.00
2019-02-28T07:33:41.300Z,97950.00
2019-02-28T07:37:56.633Z,97943.00
2019-02-28T07:42:11.297Z,97938.00
2019-02-28T07:46:26.031Z,97936.00
2019-02-28T07:50:43.488Z,97942.00
2019-02-28T07:54:57.123Z,97943.00
2019-02-28T07:59:11.677Z,97942.00
2019-02-28T08:03:26.305Z,97941.00
2019-02-28T08:07:40.930Z,97937.00
2019-02-28T08:11:56.684Z,97950.00
2019-02-28T08:16:10.957Z,97959.00
2019-02-28T08:20:25.505Z,97942.00
2019-02-28T08:24:40.347Z,97943.00
2019-02-28T08:28:54.664Z,97937.00
2019-02-28T08:33:09.162Z,97948.00
2019-02-28T08:37:23.570Z,97938.00
2019-02-28T08:41:38.070Z,97935.00
2019-02-28T08:45:52.560Z,97935.00
2019-02-28T08:50:06.933Z,97932.00
2019-02-28T08:54:26.051Z,97939.00
2019-02-28T08:58:24.435Z,97934.00
2019-02-28T09:02:52.270Z,97942.00
2019-02-28T09:06:49.455Z,97936.00
2019-02-28T09:11:10.180Z,97931.00
2019-02-28T09:15:31.356Z,97931.00
2019-02-28T09:19:52.395Z,97929.00
2019-02-28T09:24:13.676Z,97937.00
2019-02-28T09:28:34.452Z,97933.00
2019-02-28T09:32:55.306Z,97939.00
2019-02-28T09:37:09.680Z,97926.00
2019-02-28T09:41:24.398Z,97927.00
2019-02-28T09:45:39.856Z,97932.00
2019-02-28T09:49:54.842Z,97939.00
2019-02-28T09:54:09.259Z,97938.00
2019-02-28T09:58:26.259Z,97943.00
2019-02-28T10:02:40.416Z,97938.00
2019-02-28T10:06:56.865Z,97932.00
2019-02-28T10:11:11.460Z,97925.00
2019-02-28T10:15:25.860Z,97931.00
2019-02-28T10:19:45.453Z,97930.00
2019-02-28T10:23:57.004Z,97919.00
2019-02-28T10:28:11.885Z,97917.00
2019-02-28T10:32:26.417Z,97920.00
2019-02-28T10:36:44.473Z,97917.00
2019-02-28T10:40:57.695Z,97916.00
2019-02-28T10:45:12.099Z,97910.00
2019-02-28T10:49:26.750Z,97904.00
2019-02-28T10:53:41.431Z,97910.00
2019-02-28T10:57:58.434Z,97903.00
2019-02-28T11:02:13.917Z,97908.00
2019-02-28T11:06:28.918Z,97894.00
2019-02-28T11:10:43.001Z,97900.00
2019-02-28T11:14:57.420Z,97903.00
2019-02-28T11:19:13.834Z,97910.00
2019-02-28T11:23:56.616Z,97903.00
2019-02-28T11:27:57.583Z,97899.00
2019-02-28T11:32:18.630Z,97908.00
2019-02-28T11:36:34.076Z,97898.00
2019-02-28T11:40:57.036Z,97910.00
2019-02-28T11:44:51.679Z,97915.00
2019-02-28T11:49:13.683Z,97898.00
2019-02-28T11:53:39.376Z,97887.00
2019-02-28T11:57:58.534Z,97885.00
2019-02-28T12:01:59.577Z,97887.00
2019-02-28T12:06:22.432Z,97882.00
2019-02-28T12:10:42.948Z,97880.00
2019-02-28T12:15:25.458Z,97876.00
2019-02-28T12:19:28.331Z,97862.00
2019-02-28T12:23:29.118Z,97864.00
2019-02-28T12:27:49.979Z,97861.00
2019-02-28T12:32:11.290Z,97855.00
2019-02-28T12:36:14.459Z,97847.00
2019-02-28T12:40:56.740Z,97829.00
2019-02-28T12:45:39.273Z,97838.00
2019-02-28T12:50:00.230Z,97833.00
2019-02-28T12:54:21.266Z,97829.00
2019-02-28T12:58:42.375Z,97829.00
2019-02-28T13:03:03.338Z,97835.00
2019-02-28T13:07:24.275Z,97832.00
2019-02-28T13:11:45.215Z,97829.00
2019-02-28T13:16:07.429Z,97827.00
2019-02-28T13:20:32.632Z,97829.00
2019-02-28T13:24:31.773Z,97820.00
2019-02-28T13:28:54.615Z,97813.00
2019-02-28T13:33:16.162Z,97807.00
2019-02-28T13:37:31.207Z,97818.00
2019-02-28T13:41:45.781Z,97807.00
2019-02-28T13:46:00.340Z,97802.00
2019-02-28T13:50:16.792Z,97796.00
2019-02-28T13:54:17.513Z,97789.00
2019-02-28T13:58:38.400Z,97794.00
2019-02-28T14:02:39.701Z,97776.00
2019-02-28T14:07:00.508Z,97788.00
2019-02-28T14:11:21.282Z,97787.00
2019-02-28T14:15:48.035Z,97784.00
2019-02-28T14:20:09.267Z,97790.00
2019-02-28T14:24:10.208Z,97793.00
2019-02-28T14:28:32.398Z,97772.00
2019-02-28T14:32:53.710Z,97771.00
2019-02-28T14:36:54.659Z,97753.00
2019-02-28T14:41:15.525Z,97750.00
2019-02-28T14:45:39.198Z,97759.00
2019-02-28T14:50:00.753Z,97759.00
2019-02-28T14:54:21.915Z,97752.00
2019-02-28T14:58:44.374Z,97753.00
2019-02-28T15:03:05.464Z,97748.00
2019-02-28T15:07:26.265Z,97754.00
2019-02-28T15:11:48.212Z,97757.00
2019-02-28T15:16:10.039Z,97756.00
2019-02-28T15:20:32.921Z,97750.00
2019-02-28T15:24:53.649Z,97756.00
2019-02-28T15:29:14.518Z,97767.00
2019-02-28T15:33:35.268Z,97772.00
2019-02-28T15:37:49.347Z,97776.00
2019-02-28T15:42:05.488Z,97772.00
2019-02-28T15:46:20.859Z,97769.00
2019-02-28T15:50:35.453Z,97758.00
2019-02-28T15:54:51.231Z,97748.00
2019-02-28T15:59:05.105Z,97753.00
2019-02-28T16:03:06.041Z,97744.00
2019-02-28T16:07:07.135Z,97735.00
2019-02-28T16:11:28.003Z,97727.00
2019-02-28T16:15:50.184Z,97738.00
2019-02-28T16:20:12.253Z,97757.00
2019-02-28T16:24:33.122Z,97773.00
2019-02-28T16:28:53.870Z,97777.00
2019-02-28T16:33:14.623Z,97801.00
2019-02-28T16:37:28.778Z,97799.00
2019-02-28T16:41:43.460Z,97825.00
2019-02-28T16:45:58.241Z,97836.00
2019-02-28T16:50:15.325Z,97834.00
2019-02-28T16:54:29.239Z,97828.00
2019-02-28T16:58:43.653Z,97853.00
2019-02-28T17:02:57.973Z,97863.00
2019-02-28T17:07:12.552Z,97854.00
2019-02-28T17:11:27.341Z,97865.00
2019-02-28T17:15:46.314Z,97877.00
2019-02-28T17:20:03.047Z,97873.00
2019-02-28T17:24:17.580Z,97883.00
2019-02-28T17:33:00.023Z,97896.00
2019-02-28T17:37:01.144Z,97884.00
2019-02-28T17:41:02.735Z,97896.00
2019-02-28T17:45:24.990Z,97876.00
2019-02-28T17:50:07.971Z,97882.00
2019-02-28T17:54:48.608Z,97880.00
2019-02-28T17:59:29.313Z,97873.00
2019-02-28T18:04:10.121Z,97879.00
2019-02-28T18:08:50.770Z,97885.00
2019-02-28T18:13:31.463Z,97887.00
2019-02-28T18:18:15.722Z,97863.00
2019-02-28T18:22:54.699Z,97875.00
2019-02-28T18:27:35.466Z,97869.00
2019-02-28T18:31:57.142Z,97865.00
2019-02-28T18:36:13.295Z,97858.00
2019-02-28T18:40:27.474Z,97867.00
2019-02-28T18:44:42.122Z,97871.00
2019-02-28T18:48:56.443Z,97870.00
2019-02-28T18:53:11.158Z,97858.00
2019-02-28T18:57:25.242Z,97854.00
2019-02-28T19:01:39.817Z,97851.00
2019-02-28T19:05:54.251Z,97851.00
2019-02-28T19:09:55.585Z,97850.00
2019-02-28T19:14:16.512Z,97849.00
2019-02-28T19:18:37.494Z,97852.00
2019-02-28T19:22:58.352Z,97856.00
2019-02-28T19:27:19.268Z,97863.00
2019-02-28T19:31:20.331Z,97867.00
2019-02-28T19:35:21.882Z,97868.00
2019-02-28T19:39:36.110Z,97868.00
2019-02-28T19:43:50.702Z,97852.00
2019-02-28T19:47:51.821Z,97847.00
2019-02-28T19:52:12.732Z,97844.00
2019-02-28T19:56:33.595Z,97843.00
2019-02-28T20:00:54.484Z,97845.00
2019-02-28T20:05:15.378Z,97834.00
2019-02-28T20:09:36.520Z,97830.00
2019-02-28T20:13:57.269Z,97835.00
2019-02-28T20:18:18.137Z,97821.00
2019-02-28T20:22:39.130Z,97820.00
2019-02-28T20:27:00.024Z,97813.00
2019-02-28T20:31:20.871Z,97825.00
2019-02-28T20:35:35.812Z,97827.00
2019-02-28T20:43:53.391Z,97825.00
2019-02-28T20:48:14.302Z,97810.00
2019-02-28T20:52:35.196Z,97816.00
2019-02-28T20:56:55.978Z,97811.00
2019-02-28T21:01:16.954Z,97813.00
2019-02-28T21:05:40.287Z,97801.00
2019-02-28T21:10:01.080Z,97791.00
2019-02-28T21:14:21.865Z,97798.00
2019-02-28T21:23:01.301Z,97798.00
2019-02-28T21:27:22.371Z,97796.00
2019-02-28T21:31:43.186Z,97794.00
2019-02-28T21:40:15.915Z,97794.00
2019-02-28T21:44:30.367Z,97800.00
2019-02-28T21:48:44.974Z,97797.00
2019-02-28T21:52:58.889Z,97794.00
2019-02-28T21:57:13.257Z,97775.00
2019-02-28T22:01:27.534Z,97765.00
2019-02-28T22:05:28.625Z,97752.00
2019-02-28T22:09:49.469Z,97744.00
2019-02-28T22:14:11.540Z,97742.00
2019-02-28T22:18:32.286Z,97727.00
2019-02-28T22:22:53.046Z,97725.00
2019-02-28T22:27:14.015Z,97725.00
2019-02-28T22:40:20.188Z,97727.00
2019-02-28T22:44:34.587Z,97718.00
2019-02-28T22:48:49.304Z,97718.00
2019-02-28T22:53:03.914Z,97719.00
2019-02-28T22:57:18.256Z,97708.00
2019-02-28T23:01:32.795Z,97708.00
2019-02-28T23:05:34.583Z,97697.00
2019-02-28T23:09:55.864Z,97690.00
2019-02-28T23:14:16.693Z,97687.00
2019-02-28T23:18:59.176Z,97688.00
2019-02-28T23:23:19.928Z,97681.00
2019-02-28T23:27:40.674Z,97669.00
2019-02-28T23:32:21.298Z,97661.00
2019-02-28T23:36:35.090Z,97652.00
2019-02-28T23:40:49.619Z,97645.00
2019-02-28T23:45:04.493Z,97647.00
2019-02-28T23:49:18.988Z,97639.00
2019-02-28T23:53:32.940Z,97639.00
2019-02-28T23:57:47.770Z,97642.00
